Gabarus, Canada
Current Conditions -  °F | °C
As of 7:00 AM on Sunday 23 Nov 2014 (Local Time) from CYQY Reporting Station
Overcast Overcast  
Wind Chill: 28°   Ceiling: 2200
Heat Index: 37°   Visibility: 15mi
Dew Point: 34°   Wind: 16mph
Humidity: 87%   Direction: 260°W
Pressure: 29.79"   Gusts: NA
Location:  45.83°N, 60.13°W
Report Text: CYQY 231100Z 26014KT 15SM FEW012 OVC022 03/01 A2979 RMK SF2SC6 SLP092
Loading
Personal Weather Stations






























Interactive Weather Map New forecast layout! Learn more

10-Day Weather Forecast

Advertisements
Track Severe Weather on mobile